Aeroporto :
LOGIN :

Iscrizione | Disclaimer

   EN    FR    IT 

 










Sommario :    VFR   VFR Marginale   IFR   IFR Intensivo   IFR Molto Intensivo
Visibilità : 
Base nubi : 
>= 8 km
>= 3000ft
5 / 8 km
1000 / 3000 ft
1500m / 5 km
500 / 1000 ft
800 / 1500m
200 / 500 ft
< 800m
< 200 ft
Simboli :   Temporali  Nebbia  Neve Forte  Precipitazioni Forti  Vento > 20 kt
SIGMETs :   Varie  Temporali  Ghiacco  Turbolenza  Onda orograficha  Ceneri Vulcaniche






- Altitudine del aeroporto : 44 ft
- Codice IATA : SOU


EGHI - Southampton

ULTIMO METAR :
  • 171850Z 04001KT 9999 MIFG NSC 01/00 Q1039

METARs OBSOLETI :
  • 171820Z 03002KT CAVOK 03/01 Q1039
  • 171750Z 00000KT CAVOK 03/01 Q1039
  • 171720Z 01001KT CAVOK 04/03 Q1039
  • 171650Z 00000KT CAVOK 05/03 Q1039
  • 171620Z 02002KT CAVOK 06/03 Q1039
  • 171550Z 04002KT CAVOK 08/03 Q1038

TAF TAF EGHI
Valido dal 17 a 18 ore il 17 a 23 ore UTC


171659Z 1718/1723 VRB02KT 9999 FEW030
TEMPO 1718/1723 5000 BR
PROB30
TEMPO 1721/1723 0300 FG VV///
ATIS : +44 23 8062 7103



MetMap, La meteo Aeronautica in un colpo d'occhio ! - Copyright ORBIFLY Dicembre 2007 - Disclaimer

ORBIFLY MET'MAP TEAM :

Programmazione e sviluppo : Alexandra Zaïnal
Concezione : Baudouin d'Aumeries
Aiuto per la programmazione : Marc-Olivier Méhu
Supporto tecnico e logistico : Manuel Goepfert
Aiuto per la traduzione : Arnaldo La Scala

Contatto : metmap@orbifly.com




FONTI E CREDITI :

   NOAA